Airfield :
LOGIN :

Register | Disclaimer

   EN    FR    IT 

 










Legend :    VFR   Marginal VFR   IFR   Intensive IFR   Very Intensive IFR
Visi :
Ceiling :
>= 8 km
>= 3000ft
5 to 8 km
1000 to 3000 ft
1500m to 5 km
500 to 1000 ft
800 to 1500m
200 to 500 ft
< 800m
< 200 ft
Symbols :   Thunderstorms  Fog  Heavy snow  Heavy precipitations  Wind > 20 kt
SIGMETs :     Misc.  Thunderstorms  Icing  Turbulence  Mountain Waves  Volcanic Ashes






- Airport Elevation : 141 ft
- IATA code : SKS


EKSP - Srydstrup Vojens

CURRENT METAR :
  • 151750Z 06013KT 3000 -DZRA BR OVC004 07/07 Q1007

EXPIRED METARs :
  • 151720Z 06010KT 030V090 2500 -DZRA BR BKN004 07/07 Q1007
  • 151650Z 07013KT 2500 -DZ BR BKN004 07/07 Q1007
  • 151620Z 07013KT 2500 -DZRA BR SCT004 OVC006 07/06 Q1007
  • 151606Z 07013KT 2500 -DZ BR SCT004 OVC006 07/06 Q1007
  • 151550Z 07014KT 4000 -DZ BR SCT006 OVC008 07/06 Q1007
  • 151548Z 07013KT 4000 -DZ BR SCT006 OVC008 07/06 Q1007
  • 151520Z 08014KT 6000 -DZ SCT008 OVC010 07/06 Q1008
  • 151450Z 07014KT 7000 -DZ OVC010 07/06 Q1008

TAF TAF EKSP
Valid from the 15 at 18:00 until the 16 at 18:00 UTC


151701Z 1518/1618 08010KT 8000 SCT005 BKN012
TEMPO 1518/1520 2500 -RADZ BR BKN004
TEMPO 1520/1608 2000 -RADZ BR BKN003
BECMG 1608/1610 VRB05KT 1200 RA BR BKN002
TEMPO 1610/1616 4000 -RA BKN005
BECMG 1616/1618 24015KT 5000 -RA BKN008



MET'MAP, your aeronautical weather chart ! - Copyright ORBIFLY December 2007 - Disclaimer

ORBIFLY MET'MAP TEAM :

Programming & Development : Alexandra Zaïnal
Concept & Development : Baudouin d'Aumeries
Co-Development & Prog : Marc-Olivier Méhu
Technical & hardware support : Manuel Goepfert

Contact : metmap@orbifly.com




SOURCES & CREDITS :

   NOAA